Time;durP1;ratioP1;P1;durP2;ratioP2;P2;SDS_P1;SDS_P2;PMS_P1;PMS_P2;Temp;Humidity;BMP_temperature;BMP_pressure;BME280_temperature;BME280_humidity;BME280_pressure;Samples;Min_cycle;Max_cycle;Signal;HPM_P1;HPM_P2
2021/11/29 00:01:21;;;;;;;0.15;0.15;;;;;;;;;;5074667;28;20061;-88
2021/11/29 00:03:47;;;;;;;0.10;0.10;;;;;;;;;;5073869;28;20157;-89
2021/11/29 00:06:12;;;;;;;0.10;0.10;;;;;;;;;;5070963;28;20498;-88
2021/11/29 00:08:38;;;;;;;0.20;0.20;;;;;;;;;;5075689;28;20518;-88
2021/11/29 00:11:03;;;;;;;1.08;1.05;;;;;;;;;;5074660;28;20385;-89
2021/11/29 00:13:28;;;;;;;0.10;0.10;;;;;;;;;;5071534;28;20036;-89
2021/11/29 00:15:54;;;;;;;0.47;0.45;;;;;;;;;;5074040;28;20012;-88
2021/11/29 00:18:20;;;;;;;0.63;0.63;;;;;;;;;;5074606;28;20063;-88
2021/11/29 00:20:45;;;;;;;0.17;0.17;;;;;;;;;;5074727;28;20036;-88
2021/11/29 00:23:11;;;;;;;0.25;0.25;;;;;;;;;;5074544;28;20047;-89
2021/11/29 00:25:36;;;;;;;0.20;0.20;;;;;;;;;;5074341;28;20039;-88
2021/11/29 00:28:02;;;;;;;0.10;0.10;;;;;;;;;;5077035;28;20029;-88
2021/11/29 00:30:28;;;;;;;0.10;0.10;;;;;;;;;;5074458;28;20020;-88
2021/11/29 00:32:53;;;;;;;0.10;0.10;;;;;;;;;;5074132;28;20431;-89
2021/11/29 00:35:18;;;;;;;0.25;0.25;;;;;;;;;;5074655;28;20072;-89
2021/11/29 00:37:44;;;;;;;0.30;0.30;;;;;;;;;;5074079;28;20021;-89
2021/11/29 00:40:09;;;;;;;0.30;0.30;;;;;;;;;;5072533;28;20111;-89
2021/11/29 00:42:35;;;;;;;1.38;1.27;;;;;;;;;;5067888;28;20032;-89
2021/11/29 00:45:00;;;;;;;0.30;0.30;;;;;;;;;;5074328;28;20027;-88
2021/11/29 00:47:26;;;;;;;0.20;0.20;;;;;;;;;;5073671;28;20028;-88
2021/11/29 00:49:51;;;;;;;0.10;0.10;;;;;;;;;;5071994;28;20048;-89
2021/11/29 00:52:16;;;;;;;0.10;0.10;;;;;;;;;;5073685;28;20013;-89
2021/11/29 00:54:42;;;;;;;0.10;0.10;;;;;;;;;;5074337;28;20048;-90
2021/11/29 00:57:07;;;;;;;0.20;0.20;;;;;;;;;;5074475;28;20633;-90
2021/11/29 00:59:32;;;;;;;0.10;0.10;;;;;;;;;;5072114;28;20013;-90
2021/11/29 01:01:58;;;;;;;0.10;0.10;;;;;;;;;;5074100;28;20029;-91
2021/11/29 01:04:23;;;;;;;0.20;0.20;;;;;;;;;;5068860;28;20036;-91
2021/11/29 01:06:48;;;;;;;0.10;0.10;;;;;;;;;;5074314;28;20024;-91
2021/11/29 01:09:14;;;;;;;0.35;0.35;;;;;;;;;;5074012;28;20116;-90
2021/11/29 01:11:39;;;;;;;0.10;0.10;;;;;;;;;;5073842;28;20129;-88
2021/11/29 01:14:04;;;;;;;0.10;0.10;;;;;;;;;;5031957;28;20057;-90
2021/11/29 01:16:30;;;;;;;0.85;0.85;;;;;;;;;;5032195;28;20038;-89
2021/11/29 01:18:56;;;;;;;0.10;0.10;;;;;;;;;;5030666;28;20429;-90
2021/11/29 01:21:21;;;;;;;1.10;1.05;;;;;;;;;;5032299;28;20430;-90
2021/11/29 01:23:46;;;;;;;0.38;0.38;;;;;;;;;;5030501;28;20045;-91
2021/11/29 01:26:12;;;;;;;0.10;0.10;;;;;;;;;;5032627;28;20113;-90
2021/11/29 01:28:38;;;;;;;0.15;0.15;;;;;;;;;;5029819;28;20116;-91
2021/11/29 01:31:04;;;;;;;0.35;0.35;;;;;;;;;;5030784;28;20064;-92
2021/11/29 01:33:29;;;;;;;0.10;0.10;;;;;;;;;;5032455;28;20069;-92
2021/11/29 01:35:55;;;;;;;0.20;0.20;;;;;;;;;;5032439;28;20021;-91
2021/11/29 01:38:20;;;;;;;0.20;0.20;;;;;;;;;;5032270;28;20045;-91
2021/11/29 01:40:46;;;;;;;0.40;0.40;;;;;;;;;;5032239;28;20092;-90
2021/11/29 01:43:13;;;;;;;0.10;0.10;;;;;;;;;;5032124;28;20123;-93
2021/11/29 01:45:40;;;;;;;0.10;0.10;;;;;;;;;;5060561;28;20537;-93
2021/11/29 01:48:06;;;;;;;0.95;0.95;;;;;;;;;;5073697;28;20036;-93
2021/11/29 01:50:31;;;;;;;0.20;0.20;;;;;;;;;;5070834;28;20469;-92
2021/11/29 01:52:57;;;;;;;0.90;0.90;;;;;;;;;;5054390;28;20033;-93
2021/11/29 01:55:22;;;;;;;0.20;0.20;;;;;;;;;;5062154;28;20063;-92
2021/11/29 01:57:48;;;;;;;0.20;0.20;;;;;;;;;;5073559;28;20028;-92
2021/11/29 02:00:17;;;;;;;0.10;0.10;;;;;;;;;;5074005;28;20074;-93
2021/11/29 02:02:42;;;;;;;0.20;0.20;;;;;;;;;;5074205;28;20036;-93
2021/11/29 02:05:08;;;;;;;0.30;0.30;;;;;;;;;;5074630;28;20024;-93
2021/11/29 02:07:33;;;;;;;0.28;0.28;;;;;;;;;;5074040;28;20028;-94
2021/11/29 02:09:58;;;;;;;0.10;0.10;;;;;;;;;;5072084;28;20032;-93
2021/11/29 02:12:23;;;;;;;0.47;0.47;;;;;;;;;;5053551;28;20033;-93
2021/11/29 02:14:49;;;;;;;0.15;0.15;;;;;;;;;;5052239;28;20129;-94
2021/11/29 02:17:16;;;;;;;1.85;1.50;;;;;;;;;;5055756;28;20044;-94
2021/11/29 02:19:45;;;;;;;0.20;0.20;;;;;;;;;;5031465;28;20075;-93
2021/11/29 02:22:10;;;;;;;0.10;0.10;;;;;;;;;;5051947;28;20128;-93
2021/11/29 02:24:36;;;;;;;0.10;0.10;;;;;;;;;;5051898;28;20861;-92
2021/11/29 02:27:02;;;;;;;2.42;2.30;;;;;;;;;;5051412;28;20040;-93
2021/11/29 02:29:27;;;;;;;0.20;0.20;;;;;;;;;;5054353;28;20390;-93
2021/11/29 02:31:53;;;;;;;0.10;0.10;;;;;;;;;;5055516;28;20048;-93
2021/11/29 02:34:19;;;;;;;0.17;0.17;;;;;;;;;;5055226;28;20068;-93
2021/11/29 02:36:45;;;;;;;0.10;0.10;;;;;;;;;;5055394;28;20036;-93
2021/11/29 02:39:11;;;;;;;0.28;0.28;;;;;;;;;;5052591;28;20052;-93
2021/11/29 02:41:37;;;;;;;0.10;0.10;;;;;;;;;;5050734;28;20051;-92
2021/11/29 02:44:03;;;;;;;0.10;0.10;;;;;;;;;;5072192;28;20032;-93
2021/11/29 02:46:30;;;;;;;0.20;0.20;;;;;;;;;;5080376;28;20033;-93
2021/11/29 02:48:55;;;;;;;0.20;0.20;;;;;;;;;;5078716;28;20403;-95
2021/11/29 02:51:20;;;;;;;0.10;0.10;;;;;;;;;;5071579;28;20025;-95
2021/11/29 02:53:46;;;;;;;0.20;0.20;;;;;;;;;;5075947;28;20029;-92
2021/11/29 02:56:11;;;;;;;0.20;0.20;;;;;;;;;;5072218;28;20122;-96
2021/11/29 02:58:39;;;;;;;0.20;0.20;;;;;;;;;;5076753;28;20041;-94
2021/11/29 03:01:05;;;;;;;0.20;0.20;;;;;;;;;;5076800;28;20605;-93
2021/11/29 03:03:30;;;;;;;0.47;0.47;;;;;;;;;;5077253;28;20034;-94
2021/11/29 03:05:55;;;;;;;0.20;0.20;;;;;;;;;;5078169;28;20029;-94
2021/11/29 03:08:20;;;;;;;0.10;0.10;;;;;;;;;;5072116;28;20115;-94
2021/11/29 03:10:46;;;;;;;0.17;0.17;;;;;;;;;;5078185;28;20471;-94
2021/11/29 03:13:11;;;;;;;0.30;0.30;;;;;;;;;;5077086;28;20029;-93
2021/11/29 03:15:36;;;;;;;0.17;0.17;;;;;;;;;;5076631;28;20040;-93
2021/11/29 03:18:02;;;;;;;0.20;0.20;;;;;;;;;;5078807;28;20025;-95
2021/11/29 03:20:27;;;;;;;0.10;0.10;;;;;;;;;;5077374;28;20486;-96
2021/11/29 03:22:52;;;;;;;0.10;0.10;;;;;;;;;;5075410;28;20020;-95
2021/11/29 03:25:18;;;;;;;0.20;0.20;;;;;;;;;;5077729;28;20445;-96
2021/11/29 03:27:43;;;;;;;0.20;0.20;;;;;;;;;;5074365;28;20039;-94
2021/11/29 03:30:09;;;;;;;0.20;0.20;;;;;;;;;;5076050;28;20040;-96
2021/11/29 03:32:37;;;;;;;0.20;0.20;;;;;;;;;;5073144;28;20018;-95
2021/11/29 03:35:04;;;;;;;0.17;0.17;;;;;;;;;;5078431;28;20102;-95
2021/11/29 03:37:30;;;;;;;0.20;0.20;;;;;;;;;;5079063;28;20032;-94
2021/11/29 03:39:55;;;;;;;0.10;0.10;;;;;;;;;;5077907;28;20350;-94
2021/11/29 03:42:21;;;;;;;0.20;0.20;;;;;;;;;;5074849;28;20388;-94
2021/11/29 03:44:46;;;;;;;0.80;0.80;;;;;;;;;;5076162;28;20516;-95
2021/11/29 03:47:11;;;;;;;0.10;0.10;;;;;;;;;;5076392;28;20036;-95
2021/11/29 03:49:37;;;;;;;0.20;0.20;;;;;;;;;;5076739;28;20035;-93
2021/11/29 03:52:02;;;;;;;0.20;0.20;;;;;;;;;;5075931;28;20028;-96
2021/11/29 03:54:28;;;;;;;0.10;0.10;;;;;;;;;;5057608;28;20122;-95
2021/11/29 03:56:53;;;;;;;0.20;0.20;;;;;;;;;;5067315;28;20169;-95
2021/11/29 03:59:19;;;;;;;0.10;0.10;;;;;;;;;;5075533;28;20037;-96
2021/11/29 04:01:44;;;;;;;0.10;0.10;;;;;;;;;;5072359;28;20016;-94
2021/11/29 04:04:10;;;;;;;0.10;0.10;;;;;;;;;;5075221;28;20115;-94
2021/11/29 04:06:35;;;;;;;0.10;0.10;;;;;;;;;;5071666;28;20043;-95
2021/11/29 04:09:03;;;;;;;0.20;0.20;;;;;;;;;;5074901;28;20016;-95
2021/11/29 04:11:29;;;;;;;0.10;0.10;;;;;;;;;;5071474;28;20033;-96
2021/11/29 04:13:54;;;;;;;0.10;0.10;;;;;;;;;;5067562;28;20074;-94
2021/11/29 04:16:19;;;;;;;0.10;0.10;;;;;;;;;;5075715;28;20066;-95
2021/11/29 04:18:45;;;;;;;0.10;0.10;;;;;;;;;;5074812;28;20055;-95
2021/11/29 04:21:12;;;;;;;0.20;0.20;;;;;;;;;;5075332;28;20461;-96
2021/11/29 04:23:38;;;;;;;0.10;0.10;;;;;;;;;;5066525;28;20021;-93
2021/11/29 04:26:04;;;;;;;0.10;0.10;;;;;;;;;;5072359;28;20119;-95
2021/11/29 04:28:30;;;;;;;0.13;0.13;;;;;;;;;;5075671;28;20041;-94
2021/11/29 04:30:55;;;;;;;0.40;0.40;;;;;;;;;;5074740;28;20025;-96
2021/11/29 04:33:21;;;;;;;0.10;0.10;;;;;;;;;;5075222;28;20035;-95
2021/11/29 04:35:46;;;;;;;0.10;0.10;;;;;;;;;;5074790;28;20476;-94
2021/11/29 04:38:12;;;;;;;0.10;0.10;;;;;;;;;;5071116;28;20035;-94
2021/11/29 04:40:37;;;;;;;0.20;0.20;;;;;;;;;;5074650;28;20599;-94
2021/11/29 04:43:03;;;;;;;1.05;1.00;;;;;;;;;;5074546;28;20072;-95
2021/11/29 04:45:29;;;;;;;0.10;0.10;;;;;;;;;;5052904;28;20432;-96
2021/11/29 04:47:54;;;;;;;0.10;0.10;;;;;;;;;;5053049;28;20048;-95
2021/11/29 04:50:20;;;;;;;0.28;0.28;;;;;;;;;;5048354;28;20037;-95
2021/11/29 04:52:45;;;;;;;0.38;0.38;;;;;;;;;;5052582;28;20093;-92
2021/11/29 04:55:11;;;;;;;0.10;0.10;;;;;;;;;;5052783;28;20131;-95
2021/11/29 04:57:37;;;;;;;0.10;0.10;;;;;;;;;;5050279;28;20045;-95
2021/11/29 05:00:03;;;;;;;0.10;0.10;;;;;;;;;;5053866;28;20025;-96
2021/11/29 05:02:29;;;;;;;0.10;0.10;;;;;;;;;;5050123;28;20089;-95
2021/11/29 05:04:54;;;;;;;3.42;1.05;;;;;;;;;;5052477;28;20128;-96
2021/11/29 05:07:20;;;;;;;0.10;0.10;;;;;;;;;;5049979;28;20017;-96
2021/11/29 05:09:45;;;;;;;0.10;0.10;;;;;;;;;;5049697;28;20036;-94
2021/11/29 05:12:14;;;;;;;0.55;0.55;;;;;;;;;;5052853;28;20052;-93
2021/11/29 05:14:39;;;;;;;0.73;0.73;;;;;;;;;;5052694;28;20025;-94
2021/11/29 05:17:05;;;;;;;1.65;1.55;;;;;;;;;;5069237;28;20048;-95
2021/11/29 05:19:30;;;;;;;0.20;0.20;;;;;;;;;;5073688;28;20064;-96
2021/11/29 05:21:55;;;;;;;0.17;0.17;;;;;;;;;;5074044;28;20381;-96
2021/11/29 05:24:21;;;;;;;0.10;0.10;;;;;;;;;;5074776;28;20037;-96
2021/11/29 05:26:46;;;;;;;0.10;0.10;;;;;;;;;;5074327;28;20021;-95
2021/11/29 05:29:15;;;;;;;0.20;0.20;;;;;;;;;;5074935;28;20013;-95
2021/11/29 05:31:40;;;;;;;0.10;0.10;;;;;;;;;;5074059;28;20043;-95
2021/11/29 05:34:06;;;;;;;0.20;0.20;;;;;;;;;;5074495;28;20024;-96
2021/11/29 05:36:31;;;;;;;0.45;0.45;;;;;;;;;;5074154;28;20019;-96
2021/11/29 05:38:56;;;;;;;0.10;0.10;;;;;;;;;;5074668;28;20044;-96
2021/11/29 05:41:22;;;;;;;0.10;0.10;;;;;;;;;;5069382;28;20115;-95
2021/11/29 05:43:47;;;;;;;0.10;0.10;;;;;;;;;;5070626;28;20021;-96
2021/11/29 05:46:13;;;;;;;0.10;0.10;;;;;;;;;;5072276;28;20029;-95
2021/11/29 05:48:38;;;;;;;0.85;0.85;;;;;;;;;;5073749;28;20038;-94
2021/11/29 05:51:03;;;;;;;0.10;0.10;;;;;;;;;;5073699;28;20067;-95
2021/11/29 05:53:29;;;;;;;0.10;0.10;;;;;;;;;;5073873;28;20503;-96
2021/11/29 05:55:54;;;;;;;0.20;0.20;;;;;;;;;;5074166;28;20051;-95
2021/11/29 05:58:19;;;;;;;0.20;0.20;;;;;;;;;;5073610;28;20396;-95
2021/11/29 06:00:45;;;;;;;0.10;0.10;;;;;;;;;;5074115;28;20040;-96
2021/11/29 06:03:11;;;;;;;0.20;0.20;;;;;;;;;;5073702;28;20044;-96
2021/11/29 06:05:36;;;;;;;0.60;0.60;;;;;;;;;;5076537;28;20524;-96
2021/11/29 06:08:01;;;;;;;0.20;0.20;;;;;;;;;;5078045;28;20032;-95
2021/11/29 06:10:27;;;;;;;0.20;0.20;;;;;;;;;;5078025;28;20033;-95
2021/11/29 06:12:52;;;;;;;0.10;0.10;;;;;;;;;;5076312;28;20021;-95
2021/11/29 06:15:17;;;;;;;0.10;0.10;;;;;;;;;;5085679;28;20028;-95
2021/11/29 06:17:43;;;;;;;0.10;0.10;;;;;;;;;;5074021;28;20132;-93
2021/11/29 06:20:09;;;;;;;0.20;0.20;;;;;;;;;;5077340;28;20104;-93
2021/11/29 06:22:35;;;;;;;0.20;0.20;;;;;;;;;;5078916;28;20028;-94
2021/11/29 06:25:00;;;;;;;0.20;0.20;;;;;;;;;;5077769;28;20036;-94
2021/11/29 06:27:26;;;;;;;0.20;0.20;;;;;;;;;;5081014;28;20483;-94
2021/11/29 06:29:51;;;;;;;0.10;0.10;;;;;;;;;;5077596;28;20029;-95
2021/11/29 06:32:17;;;;;;;0.10;0.10;;;;;;;;;;5082156;28;20541;-95
2021/11/29 06:34:42;;;;;;;0.10;0.10;;;;;;;;;;5080797;28;20025;-94
2021/11/29 06:37:08;;;;;;;0.10;0.10;;;;;;;;;;5077684;28;20098;-93
2021/11/29 06:39:35;;;;;;;0.68;0.68;;;;;;;;;;5079792;28;20404;-95
2021/11/29 06:42:01;;;;;;;0.10;0.10;;;;;;;;;;5079093;28;20017;-95
2021/11/29 06:44:26;;;;;;;0.10;0.10;;;;;;;;;;5076787;28;20479;-95
2021/11/29 06:46:51;;;;;;;0.85;0.85;;;;;;;;;;5077118;28;20036;-96
2021/11/29 06:49:17;;;;;;;0.30;0.30;;;;;;;;;;5077070;28;20016;-96
2021/11/29 06:51:42;;;;;;;0.10;0.10;;;;;;;;;;5077633;28;20032;-95
2021/11/29 06:54:07;;;;;;;0.10;0.10;;;;;;;;;;5077252;28;20040;-95
2021/11/29 06:56:33;;;;;;;0.10;0.10;;;;;;;;;;5076223;28;20040;-96
2021/11/29 06:58:58;;;;;;;0.10;0.10;;;;;;;;;;5076150;28;20040;-96
2021/11/29 07:01:23;;;;;;;0.30;0.30;;;;;;;;;;5074987;28;20496;-96
2021/11/29 07:03:51;;;;;;;0.10;0.10;;;;;;;;;;5077479;28;20025;-95
2021/11/29 07:06:16;;;;;;;0.10;0.10;;;;;;;;;;5080329;28;20032;-95
2021/11/29 07:08:41;;;;;;;0.10;0.10;;;;;;;;;;5076832;28;20040;-93
2021/11/29 07:11:07;;;;;;;0.10;0.10;;;;;;;;;;5072127;28;20043;-94
2021/11/29 07:13:32;;;;;;;0.10;0.10;;;;;;;;;;5077118;28;20039;-94
2021/11/29 07:15:57;;;;;;;0.20;0.20;;;;;;;;;;5077062;28;20036;-95
2021/11/29 07:18:23;;;;;;;0.30;0.30;;;;;;;;;;5076634;28;20491;-95
2021/11/29 07:20:48;;;;;;;0.73;0.73;;;;;;;;;;5075473;28;20029;-94
2021/11/29 07:23:14;;;;;;;0.10;0.10;;;;;;;;;;5076659;28;20069;-96
2021/11/29 07:25:39;;;;;;;0.13;0.13;;;;;;;;;;5073033;28;20079;-94
2021/11/29 07:28:04;;;;;;;0.10;0.10;;;;;;;;;;5075930;28;20108;-94
2021/11/29 07:30:30;;;;;;;0.10;0.10;;;;;;;;;;5076573;28;20469;-96
2021/11/29 07:32:56;;;;;;;0.50;0.50;;;;;;;;;;5070953;28;20054;-95
2021/11/29 07:35:22;;;;;;;0.52;0.52;;;;;;;;;;5076452;28;20031;-95
2021/11/29 07:37:48;;;;;;;0.10;0.10;;;;;;;;;;5076264;28;20047;-95
2021/11/29 07:40:13;;;;;;;1.00;0.90;;;;;;;;;;5075840;28;20040;-95
2021/11/29 07:42:38;;;;;;;0.55;0.55;;;;;;;;;;5076441;28;20127;-91
2021/11/29 07:45:05;;;;;;;0.20;0.20;;;;;;;;;;5075700;28;20040;-96
2021/11/29 07:47:31;;;;;;;0.85;0.85;;;;;;;;;;5075663;28;20023;-95
2021/11/29 07:49:56;;;;;;;2.10;1.50;;;;;;;;;;5076061;28;20020;-95
2021/11/29 07:52:21;;;;;;;0.10;0.10;;;;;;;;;;5071161;28;20362;-95
2021/11/29 07:54:47;;;;;;;0.20;0.20;;;;;;;;;;5074913;28;20481;-96
2021/11/29 07:57:13;;;;;;;0.20;0.20;;;;;;;;;;5076031;28;20029;-95
2021/11/29 07:59:39;;;;;;;0.30;0.30;;;;;;;;;;5075150;28;20079;-95
2021/11/29 08:02:04;;;;;;;0.10;0.10;;;;;;;;;;5075144;28;20017;-95
2021/11/29 08:04:29;;;;;;;0.10;0.10;;;;;;;;;;5076005;28;20468;-94
2021/11/29 08:06:55;;;;;;;0.30;0.30;;;;;;;;;;5076047;28;20044;-95
2021/11/29 08:09:20;;;;;;;0.30;0.30;;;;;;;;;;5068874;28;20015;-95
2021/11/29 08:11:46;;;;;;;0.10;0.10;;;;;;;;;;5058330;28;20037;-95
2021/11/29 08:14:11;;;;;;;0.10;0.10;;;;;;;;;;5075187;28;20040;-94
2021/11/29 08:16:36;;;;;;;0.38;0.38;;;;;;;;;;5075674;28;20017;-95
2021/11/29 08:19:02;;;;;;;0.30;0.30;;;;;;;;;;5075373;28;20068;-95
2021/11/29 08:21:27;;;;;;;0.10;0.10;;;;;;;;;;5075789;28;20032;-95
2021/11/29 08:23:53;;;;;;;0.10;0.10;;;;;;;;;;5075682;28;20058;-94
2021/11/29 08:26:18;;;;;;;0.38;0.38;;;;;;;;;;5075755;28;20029;-94
2021/11/29 08:28:43;;;;;;;1.60;1.52;;;;;;;;;;5074528;28;20036;-93
2021/11/29 08:31:08;;;;;;;0.10;0.10;;;;;;;;;;5053265;28;20060;-94
2021/11/29 08:33:34;;;;;;;0.93;0.93;;;;;;;;;;5050044;28;20082;-94
2021/11/29 08:46:15;;;;;;;0.10;0.10;;;;;;;;;;5081483;28;20023;-96
2021/11/29 08:55:13;;;;;;;0.30;0.30;;;;;;;;;;5089928;28;20078;-94
2021/11/29 09:00:42;;;;;;;0.10;0.10;;;;;;;;;;5088537;28;20038;-95
2021/11/29 09:13:10;;;;;;;0.10;0.10;;;;;;;;;;5089096;28;20034;-94
2021/11/29 09:18:38;;;;;;;0.20;0.20;;;;;;;;;;5092520;28;20067;-94
2021/11/29 09:24:06;;;;;;;0.40;0.40;;;;;;;;;;5094331;28;20023;-95
2021/11/29 09:29:34;;;;;;;0.10;0.10;;;;;;;;;;5094455;28;20023;-94
2021/11/29 09:35:03;;;;;;;0.10;0.10;;;;;;;;;;5094125;28;20077;-94
2021/11/29 09:40:34;;;;;;;0.10;0.10;;;;;;;;;;5096469;28;20477;-94
2021/11/29 09:46:02;;;;;;;0.40;0.40;;;;;;;;;;5098328;28;20085;-89
2021/11/29 09:51:30;;;;;;;0.10;0.10;;;;;;;;;;5098302;28;20391;-93
2021/11/29 09:56:58;;;;;;;0.10;0.10;;;;;;;;;;5097900;28;20395;-91
2021/11/29 10:05:56;;;;;;;0.10;0.10;;;;;;;;;;5094814;28;20551;-92
2021/11/29 10:11:25;;;;;;;0.17;0.17;;;;;;;;;;5094680;28;20391;-91
2021/11/29 10:13:55;;;;;;;0.10;0.10;;;;;;;;;;5089994;28;20028;-91
2021/11/29 10:16:39;;;;;;;0.20;0.20;;;;;;;;;;5086883;28;20042;-92
2021/11/29 10:19:07;;;;;;;0.10;0.10;;;;;;;;;;5094577;28;20072;-92
2021/11/29 10:21:32;;;;;;;0.20;0.20;;;;;;;;;;5077158;28;20035;-91
2021/11/29 10:23:58;;;;;;;0.17;0.17;;;;;;;;;;5091738;28;20015;-90
2021/11/29 10:26:25;;;;;;;0.20;0.20;;;;;;;;;;5091628;28;20047;-92
2021/11/29 10:28:59;;;;;;;0.10;0.10;;;;;;;;;;5094267;28;20070;-91
2021/11/29 10:31:26;;;;;;;0.30;0.30;;;;;;;;;;5092747;28;20036;-91
2021/11/29 10:33:53;;;;;;;1.27;1.08;;;;;;;;;;5094342;28;20077;-91
2021/11/29 10:36:19;;;;;;;0.17;0.17;;;;;;;;;;5091459;28;20016;-91
2021/11/29 10:38:48;;;;;;;0.17;0.17;;;;;;;;;;5094353;28;20085;-91
2021/11/29 10:41:14;;;;;;;0.28;0.28;;;;;;;;;;5094027;28;20050;-90
2021/11/29 10:43:40;;;;;;;0.55;0.55;;;;;;;;;;5088258;28;20016;-91
2021/11/29 10:46:17;;;;;;;0.20;0.20;;;;;;;;;;5088640;28;20032;-89
2021/11/29 10:48:43;;;;;;;1.70;1.25;;;;;;;;;;5094710;28;20087;-90
2021/11/29 10:51:09;;;;;;;1.73;1.50;;;;;;;;;;5090776;28;20056;-91
2021/11/29 11:04:04;;;;;;;0.10;0.10;;;;;;;;;;5081587;28;20027;-86
2021/11/29 11:09:33;;;;;;;0.25;0.25;;;;;;;;;;5095083;28;20169;-91
2021/11/29 11:15:08;;;;;;;1.70;0.82;;;;;;;;;;5094119;28;20494;-91
2021/11/29 11:20:36;;;;;;;2.45;1.65;;;;;;;;;;5074101;28;20032;-91
2021/11/29 11:26:24;;;;;;;0.10;0.10;;;;;;;;;;5093526;28;20049;-90
2021/11/29 11:32:06;;;;;;;0.30;0.30;;;;;;;;;;5088934;28;20405;-91
2021/11/29 11:37:48;;;;;;;1.45;1.25;;;;;;;;;;5093303;28;20455;-90
2021/11/29 11:40:15;;;;;;;0.98;0.98;;;;;;;;;;5055635;28;20039;-91
2021/11/29 11:42:40;;;;;;;0.20;0.20;;;;;;;;;;5054267;28;20423;-91
2021/11/29 11:45:12;;;;;;;1.40;1.35;;;;;;;;;;5067976;28;20041;-90
2021/11/29 11:47:37;;;;;;;5.85;2.22;;;;;;;;;;5071036;28;20080;-91
2021/11/29 11:50:04;;;;;;;2.85;2.65;;;;;;;;;;5070587;28;20024;-90
2021/11/29 11:52:29;;;;;;;0.10;0.10;;;;;;;;;;5075364;28;20050;-90
2021/11/29 11:54:58;;;;;;;0.32;0.32;;;;;;;;;;5071670;28;20112;-90
2021/11/29 11:57:24;;;;;;;2.55;1.25;;;;;;;;;;5070646;28;20032;-91
2021/11/29 12:00:01;;;;;;;0.10;0.10;;;;;;;;;;5050397;28;20040;-90
2021/11/29 12:02:40;;;;;;;0.10;0.10;;;;;;;;;;5069935;28;20040;-91
2021/11/29 12:05:17;;;;;;;1.17;1.08;;;;;;;;;;5064686;28;20033;-90
2021/11/29 12:07:43;;;;;;;0.50;0.50;;;;;;;;;;5064883;28;20099;-90
2021/11/29 12:10:44;;;;;;;0.82;0.82;;;;;;;;;;5070246;28;20119;-90
2021/11/29 12:13:16;;;;;;;0.73;0.73;;;;;;;;;;5036213;28;20041;-90
2021/11/29 12:15:43;;;;;;;0.70;0.60;;;;;;;;;;5085292;28;20054;-90
2021/11/29 12:18:10;;;;;;;0.10;0.10;;;;;;;;;;5088855;28;20476;-88
2021/11/29 12:20:36;;;;;;;0.10;0.10;;;;;;;;;;5093173;28;20028;-90
2021/11/29 12:23:02;;;;;;;1.20;0.57;;;;;;;;;;5074170;28;20184;-90
2021/11/29 12:25:27;;;;;;;0.10;0.10;;;;;;;;;;5092678;28;20031;-91
2021/11/29 12:27:54;;;;;;;0.20;0.20;;;;;;;;;;5084561;28;20470;-90
2021/11/29 12:30:40;;;;;;;0.40;0.40;;;;;;;;;;5092264;28;20047;-89
2021/11/29 12:33:06;;;;;;;0.40;0.40;;;;;;;;;;5072075;28;20336;-90
2021/11/29 12:36:05;;;;;;;0.95;0.95;;;;;;;;;;5069604;28;20085;-90
2021/11/29 12:38:43;;;;;;;0.10;0.10;;;;;;;;;;5055673;28;20044;-90
2021/11/29 12:41:08;;;;;;;0.43;0.43;;;;;;;;;;5091664;28;20048;-91
2021/11/29 12:43:43;;;;;;;0.30;0.30;;;;;;;;;;5092414;28;20032;-90
2021/11/29 12:46:14;;;;;;;0.13;0.13;;;;;;;;;;5082132;28;20039;-90
2021/11/29 12:48:40;;;;;;;0.32;0.32;;;;;;;;;;5088083;28;20480;-91
2021/11/29 12:51:06;;;;;;;0.32;0.32;;;;;;;;;;5087712;28;20112;-90
2021/11/29 12:53:38;;;;;;;1.08;0.90;;;;;;;;;;5087919;28;20024;-88
2021/11/29 12:56:03;;;;;;;1.05;0.95;;;;;;;;;;5083642;28;20488;-91
2021/11/29 12:58:29;;;;;;;0.10;0.10;;;;;;;;;;5090433;28;20032;-88
2021/11/29 13:00:56;;;;;;;0.47;0.47;;;;;;;;;;5083913;28;20067;-91
2021/11/29 13:03:28;;;;;;;0.20;0.20;;;;;;;;;;5089695;28;20032;-91
2021/11/29 13:06:02;;;;;;;0.13;0.13;;;;;;;;;;5089444;28;20032;-90
2021/11/29 13:08:29;;;;;;;2.08;0.73;;;;;;;;;;5089647;28;20476;-91
2021/11/29 13:11:09;;;;;;;1.33;1.23;;;;;;;;;;5090008;28;20146;-90
2021/11/29 13:13:37;;;;;;;0.10;0.10;;;;;;;;;;5089311;28;20050;-90
2021/11/29 13:16:23;;;;;;;0.10;0.10;;;;;;;;;;5090300;28;20035;-90
2021/11/29 13:18:55;;;;;;;;;;;;;;;;;;5070721;28;20118;-90
2021/11/29 13:21:26;;;;;;;2.50;1.35;;;;;;;;;;5086608;28;19910;-90
2021/11/29 13:23:54;;;;;;;0.10;0.10;;;;;;;;;;5089610;28;20103;-90
2021/11/29 13:26:20;;;;;;;0.10;0.10;;;;;;;;;;5089894;28;20099;-89
2021/11/29 13:28:47;;;;;;;0.55;0.55;;;;;;;;;;5086953;28;20103;-89
2021/11/29 13:31:14;;;;;;;0.10;0.10;;;;;;;;;;5086791;28;20386;-89
2021/11/29 13:33:39;;;;;;;0.10;0.10;;;;;;;;;;5086717;28;20821;-91
2021/11/29 13:36:06;;;;;;;0.10;0.10;;;;;;;;;;5089730;28;20024;-91
2021/11/29 13:38:31;;;;;;;0.10;0.10;;;;;;;;;;5089546;28;20036;-91
2021/11/29 13:40:56;;;;;;;0.40;0.40;;;;;;;;;;5080137;28;20048;-91
2021/11/29 13:43:24;;;;;;;0.35;0.35;;;;;;;;;;5090427;28;20035;-89
2021/11/29 13:45:49;;;;;;;0.20;0.20;;;;;;;;;;5090260;28;20028;-91
2021/11/29 13:48:15;;;;;;;1.85;0.85;;;;;;;;;;5089397;28;20042;-90
2021/11/29 13:50:48;;;;;;;0.10;0.10;;;;;;;;;;5090050;28;20020;-90
2021/11/29 13:53:15;;;;;;;0.20;0.20;;;;;;;;;;5090540;28;20075;-89
2021/11/29 13:55:44;;;;;;;0.30;0.30;;;;;;;;;;5086268;28;20107;-89
2021/11/29 13:58:14;;;;;;;0.30;0.30;;;;;;;;;;5089247;28;20047;-90
2021/11/29 14:00:41;;;;;;;0.22;0.22;;;;;;;;;;5088891;28;20025;-91
2021/11/29 14:03:07;;;;;;;0.40;0.40;;;;;;;;;;5090326;28;20020;-90
2021/11/29 14:05:34;;;;;;;0.20;0.20;;;;;;;;;;5091109;28;20028;-90
2021/11/29 14:08:03;;;;;;;0.10;0.10;;;;;;;;;;5090986;28;20028;-90
2021/11/29 14:10:32;;;;;;;0.10;0.10;;;;;;;;;;5091033;28;20115;-89
2021/11/29 14:12:59;;;;;;;0.20;0.20;;;;;;;;;;5090890;28;20031;-90
2021/11/29 14:15:29;;;;;;;0.10;0.10;;;;;;;;;;5090754;28;20036;-89
2021/11/29 14:17:55;;;;;;;0.60;0.60;;;;;;;;;;5091259;28;20103;-88
2021/11/29 14:20:21;;;;;;;0.15;0.15;;;;;;;;;;5090747;28;20215;-89
2021/11/29 14:22:53;;;;;;;0.40;0.40;;;;;;;;;;5090337;28;20454;-89
2021/11/29 14:25:19;;;;;;;0.50;0.50;;;;;;;;;;5091396;28;20008;-89
2021/11/29 14:27:45;;;;;;;0.20;0.20;;;;;;;;;;5095054;28;20036;-90
2021/11/29 14:30:11;;;;;;;0.10;0.10;;;;;;;;;;5094439;28;20468;-90
2021/11/29 14:32:36;;;;;;;0.38;0.38;;;;;;;;;;5090771;28;20020;-89
2021/11/29 14:35:03;;;;;;;2.47;0.60;;;;;;;;;;5094353;28;20036;-89
2021/11/29 14:37:34;;;;;;;0.10;0.10;;;;;;;;;;5094419;28;20107;-89
2021/11/29 14:40:01;;;;;;;1.05;0.95;;;;;;;;;;5094078;28;20059;-89
2021/11/29 14:42:37;;;;;;;0.55;0.55;;;;;;;;;;5094167;28;20048;-89
2021/11/29 14:45:04;;;;;;;0.80;0.45;;;;;;;;;;5094225;28;20028;-89
2021/11/29 14:47:29;;;;;;;0.70;0.70;;;;;;;;;;5094151;28;20036;-89
2021/11/29 14:50:13;;;;;;;0.17;0.17;;;;;;;;;;5094876;28;20142;-89
2021/11/29 14:52:49;;;;;;;1.50;0.70;;;;;;;;;;5094004;28;20092;-89
2021/11/29 14:55:16;;;;;;;0.10;0.10;;;;;;;;;;5094040;28;20032;-89
2021/11/29 14:57:43;;;;;;;0.25;0.25;;;;;;;;;;5094019;28;20074;-89
2021/11/29 15:00:09;;;;;;;0.63;0.63;;;;;;;;;;5093724;28;20036;-89
2021/11/29 15:02:34;;;;;;;0.10;0.10;;;;;;;;;;5093874;28;20725;-89
2021/11/29 15:05:06;;;;;;;0.20;0.20;;;;;;;;;;5094641;28;20024;-90
2021/11/29 15:07:31;;;;;;;1.25;1.15;;;;;;;;;;5080231;28;20035;-89
2021/11/29 15:09:58;;;;;;;0.40;0.40;;;;;;;;;;5093665;28;20020;-89
2021/11/29 15:12:25;;;;;;;0.55;0.55;;;;;;;;;;5093293;28;20468;-89
2021/11/29 15:14:51;;;;;;;0.38;0.38;;;;;;;;;;5093678;28;20422;-89
2021/11/29 15:17:19;;;;;;;0.55;0.55;;;;;;;;;;5088693;28;20081;-90
2021/11/29 15:19:45;;;;;;;0.65;0.65;;;;;;;;;;5093247;28;20115;-89
2021/11/29 15:22:12;;;;;;;0.30;0.30;;;;;;;;;;5093431;28;20108;-89
2021/11/29 15:24:39;;;;;;;0.10;0.10;;;;;;;;;;5079617;28;20468;-89
2021/11/29 15:27:27;;;;;;;0.10;0.10;;;;;;;;;;5093110;28;20028;-90
2021/11/29 15:29:56;;;;;;;0.73;0.73;;;;;;;;;;5093311;28;20388;-89
2021/11/29 15:32:24;;;;;;;0.30;0.30;;;;;;;;;;5073023;28;20032;-89
2021/11/29 15:35:04;;;;;;;0.20;0.20;;;;;;;;;;5072321;28;20488;-89
2021/11/29 15:37:30;;;;;;;0.47;0.47;;;;;;;;;;5072522;28;20028;-89
2021/11/29 15:39:55;;;;;;;0.15;0.15;;;;;;;;;;5088121;28;20040;-89
2021/11/29 15:42:31;;;;;;;1.00;0.50;;;;;;;;;;5091895;28;20059;-86
2021/11/29 15:44:56;;;;;;;;;;;;;;;;;;5093535;28;20034;-89
2021/11/29 15:47:21;;;;;;;0.43;0.43;;;;;;;;;;5093505;28;19904;-91
2021/11/29 15:49:47;;;;;;;0.10;0.10;;;;;;;;;;5093475;28;20036;-89
2021/11/29 15:52:12;;;;;;;0.30;0.30;;;;;;;;;;5092213;28;20074;-90
2021/11/29 15:54:37;;;;;;;0.20;0.20;;;;;;;;;;5092840;28;20016;-90
2021/11/29 15:57:03;;;;;;;0.35;0.32;;;;;;;;;;5087667;28;20086;-89
2021/11/29 15:59:28;;;;;;;0.20;0.20;;;;;;;;;;5091902;28;20113;-87
2021/11/29 16:01:53;;;;;;;0.22;0.22;;;;;;;;;;5089630;28;20020;-90
2021/11/29 16:04:19;;;;;;;0.50;0.50;;;;;;;;;;5091726;28;20779;-90
2021/11/29 16:06:44;;;;;;;3.20;1.65;;;;;;;;;;5091451;28;20028;-90
2021/11/29 16:09:09;;;;;;;1.75;1.23;;;;;;;;;;5086716;28;20024;-88
2021/11/29 16:11:35;;;;;;;1.00;0.50;;;;;;;;;;5091290;28;20028;-89
2021/11/29 16:14:00;;;;;;;0.30;0.30;;;;;;;;;;5092701;28;20118;-88